Silk Hope, North Carolina
Current Conditions -  °F | °C
As of 5:55 PM on Wednesday 22 Oct 2014 (Local Time) from K5W8 Reporting Station
Clear Clear  
Wind Chill: 60°   Ceiling: Unl
Heat Index: 60°   Visibility: 10mi
Dew Point: 41°   Wind: 9mph
Humidity: 50%   Direction: 320°NW
Pressure: 30.01"   Gusts: 18mph
Location:  35.7397°N, 79.4342°W
Report Text: K5W8 222155Z AUTO 32008G16KT 10SM CLR 15/05 A3001 RMK AO2 T01540051
Loading
Personal Weather Stations






























Interactive Weather Map
Tropical Storm Tracking
New forecast layout! Learn more

10-Day Weather Forecast

Advertisements
Track Severe Weather on mobile